Time;durP1;ratioP1;P1;durP2;ratioP2;P2;SDS_P1;SDS_P2;PMS_P1;PMS_P2;Temp;Humidity;BMP_temperature;BMP_pressure;BME280_temperature;BME280_humidity;BME280_pressure;Samples;Min_cycle;Max_cycle;Signal;HPM_P1;HPM_P2
2023/07/14 00:00:47;;;;;;;7.57;2.75;;;;;;;16.18;80.55;101864.31;6111155;19;20046;-72
2023/07/14 00:02:54;;;;;;;6.25;2.65;;;;;;;16.21;79.90;101858.88;6112884;19;20018;-73
2023/07/14 00:05:00;;;;;;;6.80;3.03;;;;;;;16.20;80.52;101862.47;6111451;19;20094;-74
2023/07/14 00:07:05;;;;;;;6.75;2.85;;;;;;;16.17;79.21;101854.66;6119251;19;20023;-72
2023/07/14 00:09:25;;;;;;;5.35;2.50;;;;;;;16.16;79.12;101850.28;6117236;19;20078;-72
2023/07/14 00:11:31;;;;;;;7.70;2.67;;;;;;;16.13;79.36;101864.53;6117810;19;20046;-74
2023/07/14 00:13:39;;;;;;;7.32;2.80;;;;;;;16.12;79.25;101860.19;6116513;19;20478;-74
2023/07/14 00:15:44;;;;;;;5.15;2.90;;;;;;;16.09;79.75;101862.09;6117917;19;20014;-73
2023/07/14 00:17:53;;;;;;;7.72;2.55;;;;;;;16.08;79.57;101858.59;6117164;19;19998;-74
2023/07/14 00:20:00;;;;;;;8.10;2.65;;;;;;;16.09;79.57;101854.13;6118749;19;20014;-74
2023/07/14 00:22:14;;;;;;;6.45;2.80;;;;;;;16.07;79.97;101856.03;6119058;19;20341;-72
2023/07/14 00:24:23;;;;;;;7.28;2.60;;;;;;;16.05;80.26;101853.44;6114313;19;20030;-73
2023/07/14 00:26:31;;;;;;;8.00;2.80;;;;;;;16.05;79.99;101848.13;6117000;19;20022;-72
2023/07/14 00:28:38;;;;;;;5.07;2.35;;;;;;;16.05;80.90;101850.78;6116874;19;20098;-73
2023/07/14 00:30:44;;;;;;;8.00;2.80;;;;;;;16.02;80.27;101837.69;6114029;19;20099;-73
2023/07/14 00:32:50;;;;;;;6.97;2.88;;;;;;;16.03;81.08;101847.34;6115091;19;20384;-73
2023/07/14 00:34:56;;;;;;;4.90;2.72;;;;;;;16.02;80.76;101845.63;6115555;19;20022;-72
2023/07/14 00:37:02;;;;;;;5.28;2.80;;;;;;;16.00;80.94;101844.84;6114327;19;20046;-73
2023/07/14 00:39:08;;;;;;;5.30;2.53;;;;;;;15.98;80.55;101846.69;6115337;19;20042;-73
2023/07/14 00:41:19;;;;;;;4.53;2.58;;;;;;;15.96;80.73;101843.28;6116261;19;20017;-73
2023/07/14 00:43:29;;;;;;;4.60;2.55;;;;;;;15.94;81.33;101840.69;6114470;19;20007;-72
2023/07/14 00:45:39;;;;;;;7.30;2.80;;;;;;;15.89;81.05;101834.75;6115604;19;20090;-73
2023/07/14 00:47:45;;;;;;;8.63;3.03;;;;;;;15.93;81.19;101832.78;6116524;19;20471;-72
2023/07/14 00:49:53;;;;;;;6.95;2.78;;;;;;;16.00;81.43;101824.47;6115920;19;20007;-73
2023/07/14 00:52:03;;;;;;;6.65;2.60;;;;;;;16.06;80.82;101828.66;6115444;19;20376;-73
2023/07/14 00:54:26;;;;;;;6.90;2.75;;;;;;;15.99;80.09;101828.06;6115325;19;20470;-75
2023/07/14 00:56:41;;;;;;;6.80;2.97;;;;;;;16.00;79.96;101834.22;6112080;19;20059;-75
2023/07/14 00:58:49;;;;;;;7.38;3.10;;;;;;;16.00;79.07;101828.94;6113372;19;20232;-73
2023/07/14 01:01:21;;;;;;;4.78;2.63;;;;;;;15.98;79.43;101825.47;6113082;19;20007;-72
2023/07/14 01:03:29;;;;;;;9.20;2.90;;;;;;;15.96;78.92;101822.06;6115335;19;20021;-73
2023/07/14 01:05:34;;;;;;;6.47;2.60;;;;;;;15.95;79.98;101820.34;6114097;19;20006;-74
2023/07/14 01:07:42;;;;;;;5.30;2.50;;;;;;;15.91;79.92;101824.06;6114475;19;20019;-73
2023/07/14 01:09:46;;;;;;;6.95;2.92;;;;;;;15.88;79.94;101832.19;6114712;19;20489;-75
2023/07/14 01:11:56;;;;;;;4.32;2.60;;;;;;;15.90;80.56;101822.34;6114907;19;20015;-75
2023/07/14 01:14:06;;;;;;;7.70;2.92;;;;;;;15.87;80.44;101822.50;6112129;19;20006;-74
2023/07/14 01:16:17;;;;;;;9.50;3.63;;;;;;;15.84;81.01;101822.63;6114045;19;20014;-74
2023/07/14 01:18:25;;;;;;;9.30;3.47;;;;;;;15.84;80.69;101820.00;6109664;19;20478;-73
2023/07/14 01:20:28;;;;;;;5.22;2.38;;;;;;;15.82;80.29;101819.19;6112384;19;20054;-74
2023/07/14 01:22:41;;;;;;;;;;;;;;;15.76;80.58;101821.19;6115318;19;20033;-73
2023/07/14 01:24:49;;;;;;;6.60;2.47;;;;;;;15.77;80.42;101817.63;6113919;19;20328;-73
2023/07/14 01:27:04;;;;;;;4.97;2.38;;;;;;;15.78;80.31;101815.84;6114166;19;20352;-73
2023/07/14 01:29:08;;;;;;;10.50;3.10;;;;;;;15.76;79.80;101817.69;6113707;19;20016;-73
2023/07/14 01:31:17;;;;;;;6.97;2.90;;;;;;;15.78;80.02;101814.03;6114136;19;20031;-73
2023/07/14 01:33:23;;;;;;;7.43;2.70;;;;;;;15.79;80.53;101813.09;6113599;19;20007;-73
2023/07/14 01:35:33;;;;;;;4.38;2.60;;;;;;;15.70;79.77;101808.25;6114516;19;20023;-72
2023/07/14 01:37:39;;;;;;;7.88;3.00;;;;;;;15.61;79.71;101803.31;6113787;19;20018;-72
2023/07/14 01:39:48;;;;;;;5.82;2.50;;;;;;;15.61;79.82;101808.63;6114511;19;20486;-72
2023/07/14 01:41:53;;;;;;;6.22;2.40;;;;;;;15.60;80.21;101814.88;6115287;19;20007;-73
2023/07/14 01:44:05;;;;;;;6.47;2.72;;;;;;;15.58;79.96;101798.16;6114346;19;20010;-73
2023/07/14 01:46:17;;;;;;;6.03;2.83;;;;;;;15.53;80.40;101803.69;6114086;19;20015;-74
2023/07/14 01:48:27;;;;;;;6.75;3.00;;;;;;;15.52;79.93;101807.25;6110518;19;20007;-73
2023/07/14 01:50:36;;;;;;;5.78;2.65;;;;;;;15.48;80.37;101805.69;6112445;19;20014;-73
2023/07/14 01:52:42;;;;;;;5.90;2.78;;;;;;;15.46;79.92;101802.25;6114296;19;20034;-73
2023/07/14 01:54:51;;;;;;;8.57;3.28;;;;;;;15.44;80.91;101806.75;6111640;19;20018;-72
2023/07/14 01:57:03;;;;;;;6.25;2.67;;;;;;;15.45;80.83;101810.25;6113518;19;20027;-74
2023/07/14 01:59:18;;;;;;;7.65;2.70;;;;;;;15.45;80.79;101805.81;6112389;19;20034;-74
2023/07/14 02:01:24;;;;;;;9.00;3.03;;;;;;;15.42;80.85;101805.97;6112598;19;20015;-73
2023/07/14 02:03:34;;;;;;;8.45;3.10;;;;;;;15.45;80.74;101804.97;6114064;19;20151;-73
2023/07/14 02:05:38;;;;;;;9.48;3.20;;;;;;;15.46;80.86;101804.91;6113814;19;20381;-75
2023/07/14 02:07:43;;;;;;;5.38;2.30;;;;;;;15.44;80.59;101808.56;6111173;19;20037;-74
2023/07/14 02:09:48;;;;;;;9.27;3.00;;;;;;;15.44;80.38;101803.25;6113736;19;20327;-73
2023/07/14 02:11:58;;;;;;;9.07;3.38;;;;;;;15.41;80.41;101801.59;6113115;19;20018;-73
2023/07/14 02:14:03;;;;;;;6.03;2.53;;;;;;;15.37;80.82;101797.38;6113106;19;20022;-72
2023/07/14 02:16:17;;;;;;;6.68;2.88;;;;;;;15.34;80.93;101798.34;6113425;19;20038;-73
2023/07/14 02:18:28;;;;;;;6.85;2.58;;;;;;;15.35;81.25;101789.50;6110155;19;20021;-73
2023/07/14 02:20:38;;;;;;;7.57;3.20;;;;;;;15.36;80.84;101796.50;6111931;19;20379;-73
2023/07/14 02:22:43;;;;;;;6.10;2.78;;;;;;;15.31;80.97;101790.56;6112177;19;20123;-74
2023/07/14 02:24:50;;;;;;;7.45;3.00;;;;;;;15.30;81.29;101786.19;6113655;19;20014;-74
2023/07/14 02:27:02;;;;;;;7.00;3.55;;;;;;;15.28;81.31;101782.75;6113638;19;20014;-74
2023/07/14 02:29:12;;;;;;;7.80;3.72;;;;;;;15.24;81.77;101775.00;6114313;19;20007;-73
2023/07/14 02:31:26;;;;;;;7.30;2.88;;;;;;;15.24;81.98;101783.81;6112127;19;20010;-73
2023/07/14 02:33:35;;;;;;;9.45;3.42;;;;;;;15.20;81.29;101784.88;6112062;19;20331;-73
2023/07/14 02:35:49;;;;;;;8.15;3.20;;;;;;;15.18;81.91;101780.59;6111228;19;20077;-73
2023/07/14 02:38:03;;;;;;;11.57;3.45;;;;;;;15.14;81.67;101779.88;6117916;19;20409;-74
2023/07/14 02:40:11;;;;;;;9.38;3.13;;;;;;;15.15;81.75;101781.59;6106839;19;20018;-74
2023/07/14 02:42:16;;;;;;;6.28;2.70;;;;;;;15.15;81.95;101782.44;6108085;19;20014;-73
2023/07/14 02:44:22;;;;;;;6.45;2.50;;;;;;;15.10;81.98;101775.63;6111365;19;20044;-73
2023/07/14 02:46:35;;;;;;;8.82;3.17;;;;;;;15.09;82.42;101781.88;6109497;19;20019;-72
2023/07/14 02:48:43;;;;;;;6.57;2.90;;;;;;;15.16;82.47;101780.66;6112520;19;20013;-74
2023/07/14 02:50:49;;;;;;;8.40;3.00;;;;;;;15.18;82.53;101778.81;6112902;19;20136;-72
2023/07/14 02:52:54;;;;;;;10.88;3.60;;;;;;;15.14;82.54;101787.81;6111937;19;20035;-72
2023/07/14 02:54:58;;;;;;;8.60;3.13;;;;;;;15.15;82.54;101786.88;6111800;19;20019;-72
2023/07/14 02:57:03;;;;;;;6.63;3.28;;;;;;;15.15;82.74;101776.28;6113002;19;20011;-72
2023/07/14 02:59:13;;;;;;;7.82;3.17;;;;;;;15.10;82.89;101792.38;6111891;19;20388;-71
2023/07/14 03:01:20;;;;;;;5.85;2.95;;;;;;;15.10;83.09;101788.88;6112608;19;20043;-72
2023/07/14 03:03:28;;;;;;;9.90;4.55;;;;;;;15.08;82.62;101780.97;6113989;19;20011;-74
2023/07/14 03:05:33;;;;;;;12.50;3.78;;;;;;;15.09;83.35;101777.44;6113467;19;20089;-74
2023/07/14 03:07:39;;;;;;;8.68;3.45;;;;;;;15.07;83.89;101781.94;6112312;19;20019;-72
2023/07/14 03:09:44;;;;;;;8.00;3.35;;;;;;;15.09;83.37;101779.22;6113187;19;20014;-73
2023/07/14 03:11:49;;;;;;;7.13;3.03;;;;;;;15.08;83.67;101780.13;6111836;19;20015;-73
2023/07/14 03:13:54;;;;;;;8.13;3.55;;;;;;;15.10;83.82;101775.63;6112922;19;20038;-73
2023/07/14 03:16:00;;;;;;;8.68;2.85;;;;;;;15.09;83.92;101771.28;6113131;19;20361;-73
2023/07/14 03:18:06;;;;;;;7.13;2.97;;;;;;;15.08;83.72;101772.19;6111620;19;20022;-74
2023/07/14 03:20:14;;;;;;;11.57;4.22;;;;;;;15.07;84.12;101767.84;6110703;19;20014;-72
2023/07/14 03:22:19;;;;;;;11.13;3.67;;;;;;;15.04;84.40;101763.53;6110874;19;20014;-74
2023/07/14 03:24:25;;;;;;;8.48;3.33;;;;;;;15.03;84.39;101766.25;6110796;19;20015;-73
2023/07/14 03:26:32;;;;;;;5.57;3.03;;;;;;;15.01;84.74;101762.78;6108850;19;20011;-76
2023/07/14 03:28:38;;;;;;;12.50;3.70;;;;;;;14.99;84.64;101760.22;6110114;19;20017;-73
2023/07/14 03:30:44;;;;;;;9.07;3.22;;;;;;;15.00;85.05;101763.72;6112464;19;20010;-73
2023/07/14 03:32:52;;;;;;;7.32;3.83;;;;;;;14.98;84.91;101760.28;6110872;19;20006;-72
2023/07/14 03:34:58;;;;;;;8.93;3.03;;;;;;;14.99;85.11;101765.53;6112324;19;20379;-72
2023/07/14 03:37:07;;;;;;;4.15;2.85;;;;;;;14.96;84.69;101754.22;6112478;19;20034;-72
2023/07/14 03:39:25;;;;;;;10.07;3.40;;;;;;;15.00;85.18;101767.22;6110423;19;20022;-72
2023/07/14 03:41:33;;;;;;;8.50;2.97;;;;;;;14.97;85.25;101763.88;6115117;19;20010;-72
2023/07/14 03:43:41;;;;;;;7.97;3.42;;;;;;;14.96;85.25;101763.03;6117447;19;20007;-72
2023/07/14 03:45:49;;;;;;;6.38;2.92;;;;;;;14.93;86.01;101758.72;6117388;19;20011;-73
2023/07/14 03:47:54;;;;;;;7.97;3.42;;;;;;;14.96;85.53;101760.38;6116011;19;20050;-73
2023/07/14 03:49:56;;;;;;;7.78;4.10;;;;;;;14.96;85.99;101759.53;6117509;19;20330;-72
2023/07/14 03:52:08;;;;;;;9.52;3.33;;;;;;;15.00;86.02;101754.00;6116869;19;20151;-72
2023/07/14 03:54:14;;;;;;;8.52;4.10;;;;;;;14.95;85.91;101753.34;6109630;19;20007;-73
2023/07/14 03:56:19;;;;;;;11.30;3.97;;;;;;;14.97;86.21;101750.63;6115502;19;20039;-72
2023/07/14 03:58:24;;;;;;;8.30;3.22;;;;;;;15.00;85.92;101746.06;6111761;19;20040;-70
2023/07/14 04:00:31;;;;;;;9.13;3.70;;;;;;;15.03;85.83;101747.72;6116193;19;20020;-72
2023/07/14 04:02:38;;;;;;;6.97;3.30;;;;;;;15.02;86.62;101746.84;6116553;19;20043;-73
2023/07/14 04:04:43;;;;;;;8.82;3.72;;;;;;;15.04;85.82;101749.44;6117070;19;20007;-75
2023/07/14 04:06:48;;;;;;;7.72;3.80;;;;;;;14.98;86.19;101745.28;6117156;19;20383;-73
2023/07/14 04:08:59;;;;;;;10.68;4.03;;;;;;;15.02;86.74;101751.28;6116557;19;20014;-73
2023/07/14 04:11:04;;;;;;;10.85;4.15;;;;;;;15.04;86.81;101750.31;6115858;19;20013;-73
2023/07/14 04:13:08;;;;;;;11.35;3.78;;;;;;;15.05;86.83;101748.50;6116702;19;20443;-73
2023/07/14 04:15:13;;;;;;;10.63;5.00;;;;;;;15.01;87.22;101746.91;6116055;19;20023;-72
2023/07/14 04:17:19;;;;;;;12.80;4.15;;;;;;;15.03;87.19;101743.28;6113580;19;20112;-74
2023/07/14 04:19:23;;;;;;;9.00;4.40;;;;;;;15.08;87.15;101741.28;6117838;19;20015;-74
2023/07/14 04:21:33;;;;;;;12.32;4.43;;;;;;;15.09;86.46;101740.38;6116463;19;20503;-73
2023/07/14 04:23:41;;;;;;;13.55;4.95;;;;;;;15.10;86.79;101742.06;6116691;19;20467;-75
2023/07/14 04:25:49;;;;;;;12.43;4.82;;;;;;;15.09;87.13;101750.09;6117124;19;20011;-73
2023/07/14 04:27:54;;;;;;;11.75;5.43;;;;;;;15.14;86.84;101745.47;6114573;19;20009;-74
2023/07/14 04:29:59;;;;;;;13.27;5.28;;;;;;;15.14;87.12;101753.41;6114488;19;20018;-73
2023/07/14 04:32:04;;;;;;;12.85;5.38;;;;;;;15.18;86.73;101748.81;6112912;19;20088;-72
2023/07/14 04:34:09;;;;;;;11.63;5.20;;;;;;;15.20;86.84;101742.53;6115742;19;20022;-74
2023/07/14 04:36:15;;;;;;;15.88;6.47;;;;;;;15.19;87.19;101747.88;6113569;19;20018;-75
2023/07/14 04:38:21;;;;;;;14.15;5.63;;;;;;;15.21;87.12;101746.03;6116133;19;20058;-73
2023/07/14 04:40:26;;;;;;;12.70;5.13;;;;;;;15.27;86.95;101743.09;6115573;19;20062;-73
2023/07/14 04:42:43;;;;;;;12.13;5.18;;;;;;;15.37;86.68;101747.88;6115117;19;20029;-74
2023/07/14 04:44:48;;;;;;;14.70;5.72;;;;;;;15.47;86.23;101742.19;6115467;19;20475;-74
2023/07/14 04:46:54;;;;;;;14.60;5.45;;;;;;;15.51;86.28;101741.13;6113496;19;20040;-73
2023/07/14 04:48:59;;;;;;;15.52;6.07;;;;;;;15.57;86.08;101735.53;6115288;19;20018;-73
2023/07/14 04:51:04;;;;;;;13.43;5.82;;;;;;;15.58;85.65;101739.88;6113362;19;20085;-73
2023/07/14 04:53:09;;;;;;;15.25;5.75;;;;;;;15.69;85.60;101735.00;6113140;19;20018;-73
2023/07/14 04:55:14;;;;;;;14.07;5.65;;;;;;;15.72;85.40;101740.13;6115631;19;20019;-73
2023/07/14 04:57:23;;;;;;;13.50;5.32;;;;;;;15.82;85.04;101729.94;6113729;19;20362;-74
2023/07/14 04:59:32;;;;;;;15.63;6.50;;;;;;;15.80;84.64;101726.53;6112715;19;20035;-73
2023/07/14 05:01:40;;;;;;;15.93;6.00;;;;;;;15.92;84.59;101730.34;6113578;19;20014;-74
2023/07/14 05:03:49;;;;;;;18.52;6.30;;;;;;;16.00;83.92;101736.13;6112234;19;20015;-74
2023/07/14 05:05:57;;;;;;;16.02;5.95;;;;;;;16.11;83.95;101723.19;6113842;19;20014;-73
2023/07/14 05:08:00;;;;;;;17.70;5.93;;;;;;;16.21;83.49;101734.22;6114667;19;20010;-75
2023/07/14 05:10:11;;;;;;;14.88;6.13;;;;;;;16.25;83.01;101722.53;6114733;19;20010;-75
2023/07/14 05:12:16;;;;;;;12.77;5.32;;;;;;;16.20;83.20;101722.75;6106310;19;20027;-74
2023/07/14 05:14:21;;;;;;;16.08;5.45;;;;;;;16.24;83.20;101726.09;6112576;19;20025;-75
2023/07/14 05:16:29;;;;;;;20.80;5.85;;;;;;;16.15;83.59;101726.59;6112618;19;20018;-73
2023/07/14 05:18:34;;;;;;;18.67;6.80;;;;;;;16.17;83.58;101720.28;6111315;19;20038;-75
2023/07/14 05:20:43;;;;;;;12.43;6.05;;;;;;;16.19;83.37;101721.06;6113090;19;20015;-75
2023/07/14 05:22:50;;;;;;;18.25;6.38;;;;;;;16.21;83.12;101716.50;6112631;19;20146;-75
2023/07/14 05:24:56;;;;;;;16.67;6.28;;;;;;;16.41;83.32;101717.31;6113856;19;20023;-73
2023/07/14 05:27:02;;;;;;;14.52;5.57;;;;;;;16.92;81.80;101715.56;6110870;19;20015;-73
2023/07/14 05:29:11;;;;;;;15.38;5.90;;;;;;;17.39;80.38;101717.44;6114261;19;20007;-73
2023/07/14 05:31:16;;;;;;;14.27;6.10;;;;;;;17.53;78.56;101717.53;6113160;19;20013;-73
2023/07/14 05:33:25;;;;;;;17.23;7.28;;;;;;;16.97;79.99;101720.63;6111146;19;20071;-75
2023/07/14 05:35:31;;;;;;;16.63;6.15;;;;;;;17.13;80.25;101716.22;6112312;19;20019;-75
2023/07/14 05:37:36;;;;;;;17.15;6.45;;;;;;;17.42;79.44;101714.63;6112757;19;20014;-74
2023/07/14 05:39:43;;;;;;;23.88;7.00;;;;;;;17.17;79.47;101714.22;6112708;19;20468;-74
2023/07/14 05:41:48;;;;;;;16.77;7.00;;;;;;;17.51;78.26;101715.94;6112905;19;20018;-74
2023/07/14 05:43:53;;;;;;;19.25;7.30;;;;;;;17.65;78.29;101717.81;6112843;19;20142;-75
2023/07/14 05:45:58;;;;;;;15.65;7.47;;;;;;;18.16;77.42;101713.13;6113731;19;20399;-73
2023/07/14 05:48:03;;;;;;;19.70;7.47;;;;;;;18.13;76.25;101721.28;6112572;19;20455;-72
2023/07/14 05:50:12;;;;;;;13.85;6.28;;;;;;;18.07;76.15;101716.31;6111676;19;20026;-73
2023/07/14 05:52:17;;;;;;;15.75;6.43;;;;;;;17.67;77.60;101713.25;6110426;19;20022;-72
2023/07/14 05:54:23;;;;;;;15.25;6.15;;;;;;;17.63;78.22;101709.91;6110755;19;20014;-73
2023/07/14 05:56:29;;;;;;;16.48;6.22;;;;;;;17.55;78.28;101712.13;6112989;19;20010;-73
2023/07/14 05:58:33;;;;;;;17.55;6.40;;;;;;;17.40;79.36;101711.19;6113107;19;20022;-73
2023/07/14 06:00:40;;;;;;;13.48;6.13;;;;;;;17.26;79.77;101717.25;6113503;19;20014;-74
2023/07/14 06:02:46;;;;;;;18.73;7.82;;;;;;;17.24;79.83;101711.16;6108927;19;20390;-73
2023/07/14 06:04:53;;;;;;;16.30;6.82;;;;;;;17.17;80.20;101706.25;6112633;19;20018;-73
2023/07/14 06:07:03;;;;;;;14.77;7.30;;;;;;;17.53;78.87;101708.69;6113126;19;20010;-74
2023/07/14 06:09:09;;;;;;;17.15;6.70;;;;;;;17.55;78.57;101709.47;6112646;19;20387;-74
2023/07/14 06:11:14;;;;;;;18.55;6.85;;;;;;;17.63;78.50;101704.59;6112329;19;20018;-74
2023/07/14 06:13:19;;;;;;;17.88;7.10;;;;;;;17.36;78.99;101703.47;6112809;19;20080;-73
2023/07/14 06:15:25;;;;;;;15.80;7.22;;;;;;;17.66;78.52;101708.88;6111970;19;20392;-73
2023/07/14 06:17:31;;;;;;;25.05;8.70;;;;;;;17.63;78.51;101714.38;6108315;19;20046;-73
2023/07/14 06:19:36;;;;;;;20.40;7.43;;;;;;;17.81;78.10;101708.03;6113161;19;20086;-74
2023/07/14 06:21:42;;;;;;;15.38;7.13;;;;;;;18.02;77.63;101702.44;6113090;19;20024;-74
2023/07/14 06:23:49;;;;;;;19.55;7.60;;;;;;;17.78;77.94;101697.56;6112907;19;20338;-73
2023/07/14 06:25:54;;;;;;;14.77;6.43;;;;;;;18.04;77.74;101704.06;6112420;19;20463;-74
2023/07/14 06:27:59;;;;;;;15.32;6.28;;;;;;;18.44;76.23;101701.72;6112026;19;20007;-73
2023/07/14 06:30:05;;;;;;;15.82;6.47;;;;;;;18.29;75.84;101698.16;6111877;19;20471;-74
2023/07/14 06:32:12;;;;;;;16.27;7.18;;;;;;;18.26;76.74;101694.81;6109938;19;20002;-73
2023/07/14 06:34:17;;;;;;;19.50;7.55;;;;;;;18.51;76.25;101695.06;6112378;19;20011;-75
2023/07/14 06:36:22;;;;;;;16.60;7.53;;;;;;;18.51;75.68;101692.41;6112522;19;20014;-74
2023/07/14 06:38:28;;;;;;;19.65;6.70;;;;;;;18.65;75.63;101695.09;6112362;19;20014;-73
2023/07/14 06:40:36;;;;;;;16.70;7.13;;;;;;;18.99;75.60;101690.38;6091023;19;20248;-71
2023/07/14 06:42:43;;;;;;;16.95;7.65;;;;;;;18.73;74.78;101686.63;6110476;19;20094;-72
2023/07/14 06:44:48;;;;;;;18.80;6.95;;;;;;;18.81;75.62;101700.34;6111824;19;20025;-72
2023/07/14 06:46:54;;;;;;;17.55;6.68;;;;;;;18.91;74.25;101705.13;6110607;19;20002;-73
2023/07/14 06:48:59;;;;;;;19.65;7.95;;;;;;;18.79;75.07;101693.41;6107902;19;20361;-73
2023/07/14 06:51:24;;;;;;;25.35;8.85;;;;;;;18.50;75.49;101700.47;6108896;19;20090;-71
2023/07/14 06:53:29;;;;;;;16.92;7.03;;;;;;;18.59;75.62;101695.47;6111351;19;20083;-72
2023/07/14 06:55:39;;;;;;;16.90;7.47;;;;;;;18.85;75.34;101688.59;6111490;19;20023;-72
2023/07/14 06:57:44;;;;;;;17.00;6.95;;;;;;;18.88;74.78;101686.66;6110864;19;20006;-72
2023/07/14 06:59:49;;;;;;;19.50;7.53;;;;;;;18.80;75.02;101687.13;6110827;19;20011;-72
2023/07/14 07:01:54;;;;;;;19.00;7.60;;;;;;;19.29;72.98;101689.38;6110219;19;20014;-72
2023/07/14 07:04:03;;;;;;;19.65;8.05;;;;;;;19.49;73.12;101688.13;6110776;19;20010;-73
2023/07/14 07:06:08;;;;;;;18.48;7.40;;;;;;;19.22;73.20;101674.72;6112197;19;20357;-72
2023/07/14 07:08:15;;;;;;;15.68;7.00;;;;;;;19.46;72.60;101685.66;6106723;19;20023;-72
2023/07/14 07:10:20;;;;;;;15.80;6.93;;;;;;;19.54;72.67;101683.34;6107614;19;20014;-72
2023/07/14 07:12:27;;;;;;;16.02;8.35;;;;;;;19.22;72.43;101672.94;6107479;19;20028;-72
2023/07/14 07:14:33;;;;;;;14.90;8.02;;;;;;;19.62;71.72;101672.19;6109166;19;20570;-73
2023/07/14 07:16:40;;;;;;;20.88;7.72;;;;;;;19.62;72.18;101673.03;6114690;19;20102;-73
2023/07/14 07:18:46;;;;;;;18.48;7.20;;;;;;;19.53;72.41;101668.28;6116834;19;20007;-72
2023/07/14 07:20:52;;;;;;;16.38;7.13;;;;;;;19.02;73.09;101670.69;6116806;19;20106;-72
2023/07/14 07:22:58;;;;;;;18.38;7.57;;;;;;;18.90;73.77;101676.78;6116784;19;20021;-72
2023/07/14 07:25:03;;;;;;;16.70;7.00;;;;;;;19.06;73.30;101673.06;6118328;19;20025;-71
2023/07/14 07:27:09;;;;;;;15.27;7.18;;;;;;;18.92;73.76;101670.41;6117084;19;20005;-72
2023/07/14 07:29:17;;;;;;;12.82;6.97;;;;;;;18.76;74.59;101670.50;6117090;19;20026;-72
2023/07/14 07:31:22;;;;;;;21.40;7.18;;;;;;;19.69;72.06;101666.34;6111449;19;20011;-72
2023/07/14 07:33:25;;;;;;;15.98;8.38;;;;;;;20.07;70.17;101667.47;6114510;19;20535;-72
2023/07/14 07:35:32;;;;;;;18.95;7.15;;;;;;;20.04;69.71;101668.53;6115508;19;20027;-72
2023/07/14 07:37:37;;;;;;;16.85;7.45;;;;;;;20.23;69.83;101662.78;6113720;19;20321;-71
2023/07/14 07:39:43;;;;;;;16.67;7.60;;;;;;;20.15;69.51;101662.47;6118069;19;20082;-71
2023/07/14 07:41:48;;;;;;;17.17;7.15;;;;;;;20.04;69.85;101657.00;6116439;19;20006;-71
2023/07/14 07:43:53;;;;;;;16.58;7.15;;;;;;;20.36;69.33;101660.13;6115713;19;20011;-73
2023/07/14 07:45:59;;;;;;;18.80;8.10;;;;;;;19.77;70.28;101655.19;6117046;19;20321;-71
2023/07/14 07:48:04;;;;;;;20.08;7.18;;;;;;;20.08;70.29;101651.31;6116559;19;20006;-71
2023/07/14 07:50:11;;;;;;;18.15;7.47;;;;;;;20.22;70.08;101657.53;6117707;19;20018;-72
2023/07/14 07:52:17;;;;;;;18.83;7.68;;;;;;;20.70;67.71;101657.84;6108755;19;20011;-73
2023/07/14 07:54:23;;;;;;;17.23;7.68;;;;;;;20.86;68.03;101657.59;6117222;19;20033;-73
2023/07/14 07:56:29;;;;;;;14.45;6.65;;;;;;;21.46;65.61;101643.47;6113131;19;20351;-71
2023/07/14 07:58:34;;;;;;;14.48;6.80;;;;;;;21.73;64.38;101645.06;6116534;19;20356;-71
2023/07/14 08:00:41;;;;;;;13.80;6.13;;;;;;;21.86;63.90;101644.03;6116886;19;20362;-72
2023/07/14 08:02:49;;;;;;;16.85;5.85;;;;;;;21.25;65.88;101651.22;6117273;19;20011;-72
2023/07/14 08:04:55;;;;;;;14.30;6.82;;;;;;;21.24;65.15;101646.81;6114793;19;20059;-73
2023/07/14 08:07:02;;;;;;;12.30;5.95;;;;;;;21.42;63.70;101648.19;6114119;19;20068;-73
2023/07/14 08:09:08;;;;;;;11.35;5.60;;;;;;;20.97;64.38;101649.66;6117573;19;20066;-73
2023/07/14 08:11:15;;;;;;;13.48;6.22;;;;;;;21.36;63.73;101640.59;6115796;19;20458;-74
2023/07/14 08:13:20;;;;;;;13.82;5.32;;;;;;;21.82;62.67;101625.63;6116429;19;20011;-74
2023/07/14 08:15:25;;;;;;;12.02;4.72;;;;;;;21.77;63.46;101628.63;6114397;19;20014;-71
2023/07/14 08:17:34;;;;;;;19.10;5.43;;;;;;;21.70;62.73;101624.75;6113126;19;20010;-73
2023/07/14 08:19:42;;;;;;;13.10;5.07;;;;;;;21.96;62.09;101632.59;6113860;19;20011;-72
2023/07/14 08:21:47;;;;;;;17.42;5.32;;;;;;;21.68;62.49;101640.03;6113590;19;20035;-72
2023/07/14 08:23:52;;;;;;;12.93;4.75;;;;;;;21.68;61.41;101648.91;6115932;19;20023;-72
2023/07/14 08:25:59;;;;;;;10.30;4.68;;;;;;;21.39;61.86;101637.72;6112528;19;20539;-72
2023/07/14 08:28:04;;;;;;;14.27;4.80;;;;;;;21.34;62.23;101638.97;6115249;19;20076;-71
2023/07/14 08:30:11;;;;;;;14.15;4.80;;;;;;;21.50;60.88;101633.41;6114932;19;20007;-72
2023/07/14 08:32:17;;;;;;;13.15;4.68;;;;;;;21.39;60.41;101628.84;6112427;19;20479;-71
2023/07/14 08:34:26;;;;;;;13.55;4.70;;;;;;;21.76;60.39;101634.97;6110074;19;20043;-71
2023/07/14 08:36:34;;;;;;;8.05;4.57;;;;;;;21.82;60.61;101634.50;6114294;19;20425;-71
2023/07/14 08:38:40;;;;;;;12.70;5.13;;;;;;;21.92;59.60;101632.84;6111083;19;20086;-72
2023/07/14 08:40:51;;;;;;;11.00;4.55;;;;;;;21.96;59.62;101629.94;6114583;19;20078;-71
2023/07/14 08:43:17;;;;;;;10.98;3.83;;;;;;;22.16;57.93;101626.59;6113391;19;20040;-71
2023/07/14 08:45:33;;;;;;;11.43;4.70;;;;;;;22.27;57.11;101617.75;6113546;19;20003;-72
2023/07/14 08:47:50;;;;;;;9.32;4.57;;;;;;;22.62;56.30;101625.72;6114246;19;20058;-72
2023/07/14 08:50:00;;;;;;;10.63;4.30;;;;;;;22.20;57.74;101630.78;6114658;19;20015;-71
2023/07/14 08:52:22;;;;;;;13.95;4.93;;;;;;;22.64;56.52;101631.78;6102077;19;20011;-73
2023/07/14 08:54:33;;;;;;;9.70;4.80;;;;;;;22.77;57.79;101620.94;6106732;19;20011;-73
2023/07/14 08:56:42;;;;;;;12.82;4.55;;;;;;;23.03;56.02;101618.03;6115622;19;20038;-71
2023/07/14 08:58:48;;;;;;;12.40;5.47;;;;;;;22.51;55.78;101620.34;6114708;19;20050;-72
2023/07/14 09:01:08;;;;;;;12.48;4.55;;;;;;;22.47;57.07;101621.56;6114977;19;20007;-74
2023/07/14 09:03:19;;;;;;;11.27;4.45;;;;;;;22.48;56.60;101615.22;6113563;19;20456;-72
2023/07/14 09:05:30;;;;;;;9.93;4.40;;;;;;;23.07;54.48;101617.69;6112019;19;20035;-71
2023/07/14 09:07:41;;;;;;;10.80;3.92;;;;;;;23.65;54.10;101615.56;6114009;19;20487;-71
2023/07/14 09:09:47;;;;;;;11.10;4.03;;;;;;;23.15;53.65;101601.81;6114487;19;20070;-72
2023/07/14 09:11:59;;;;;;;10.98;4.45;;;;;;;23.30;54.32;101607.75;6111321;19;20006;-71
2023/07/14 09:14:22;;;;;;;8.50;3.47;;;;;;;22.87;56.20;101613.88;6114137;19;20006;-72
2023/07/14 09:16:27;;;;;;;;;;;;;;;23.37;53.61;101611.63;6091077;19;20520;-72
2023/07/14 09:18:50;;;;;;;8.70;3.95;;;;;;;23.23;54.13;101609.25;6112984;19;19915;-71
2023/07/14 09:21:09;;;;;;;9.60;3.80;;;;;;;22.74;55.41;101610.47;6112796;19;20015;-71
2023/07/14 09:23:36;;;;;;;8.48;3.50;;;;;;;23.52;52.85;101608.66;6113576;19;20027;-71
2023/07/14 09:25:48;;;;;;;9.27;3.55;;;;;;;22.86;53.79;101609.50;6114580;19;20373;-72
2023/07/14 09:27:54;;;;;;;9.40;3.65;;;;;;;23.31;53.93;101613.97;6114158;19;20504;-71
2023/07/14 09:30:01;;;;;;;13.02;4.28;;;;;;;23.71;52.49;101611.50;6112129;19;20464;-73
2023/07/14 09:32:15;;;;;;;12.27;3.90;;;;;;;24.40;51.97;101602.94;6108852;19;20022;-73
2023/07/14 09:34:23;;;;;;;;;;;;;;;23.96;51.36;101609.44;6110734;19;20069;-70
2023/07/14 09:36:35;;;;;;;7.93;3.22;;;;;;;23.75;51.27;101609.44;6109934;19;20335;-71
2023/07/14 09:38:49;;;;;;;11.32;3.83;;;;;;;23.99;51.16;101607.38;6111635;19;20460;-72
2023/07/14 09:41:00;;;;;;;11.13;3.97;;;;;;;23.88;50.84;101604.72;6114804;19;20015;-73
2023/07/14 09:43:09;;;;;;;7.43;3.10;;;;;;;23.74;52.15;101597.84;6113739;19;20090;-70
2023/07/14 09:45:20;;;;;;;7.72;3.13;;;;;;;23.79;51.42;101601.00;6112898;19;20122;-72
2023/07/14 09:47:22;;;;;;;3.83;2.45;;;;;;;23.84;49.34;101596.09;6111071;19;20019;-71
2023/07/14 09:49:36;;;;;;;8.38;3.47;;;;;;;23.58;49.74;101594.72;6113477;19;20006;-72
2023/07/14 09:51:44;;;;;;;7.22;2.92;;;;;;;23.83;48.98;101589.03;6114342;19;20372;-72